AAA1123 YMML-YSSY
Flight info
| Callsign | AAA1123 |
|---|---|
| Flight time | 1h 1m |
| Altitude | 37000 |
| Route | DCT ML H129 DOSEL Y59 RIVET RIVET4 |
| Aircraft | A320/M-SDE3FGHIRWY/LB1 |
Departure
| Time | 2026-04-23 09:03 |
|---|---|
| Airport | Melbourne Airport (YMML) |
Arrival
| Time | 2026-04-23 10:05 |
|---|---|
| Airport | Sydney Kingsford Smith International Airport (YSSY) |
| Time | Latitude | Longitude | Altitude | Speed | Heading |
|---|---|---|---|---|---|
| 2026-04-23 09:01 | -37.66656 | 144.85034 | 400 ft | 0 kts | 340° |
| 2026-04-23 09:02 | -37.66607 | 144.85022 | 403 ft | 15 kts | 349° |
| 2026-04-23 09:02 | -37.66466 | 144.84981 | 408 ft | 27 kts | 345° |
| 2026-04-23 09:02 | -37.66285 | 144.84860 | 410 ft | 31 kts | 319° |
| 2026-04-23 09:03 | -37.66220 | 144.84600 | 413 ft | 40 kts | 275° |
| 2026-04-23 09:03 | -37.66178 | 144.83916 | 413 ft | 112 kts | 274° |
| 2026-04-23 09:03 | -37.66098 | 144.82701 | 515 ft | 152 kts | 277° |
| 2026-04-23 09:03 | -37.66040 | 144.81443 | 1141 ft | 145 kts | 274° |
| 2026-04-23 09:04 | -37.65977 | 144.80124 | 1492 ft | 161 kts | 276° |
| 2026-04-23 09:04 | -37.65880 | 144.78605 | 1713 ft | 191 kts | 276° |
| 2026-04-23 09:04 | -37.65765 | 144.76829 | 2055 ft | 217 kts | 276° |
| 2026-04-23 09:04 | -37.65639 | 144.74833 | 2463 ft | 240 kts | 277° |
| 2026-04-23 09:05 | -37.65504 | 144.72640 | 2975 ft | 258 kts | 276° |
| 2026-04-23 09:05 | -37.65368 | 144.70345 | 3758 ft | 266 kts | 276° |
| 2026-04-23 09:05 | -37.64980 | 144.68051 | 4555 ft | 271 kts | 293° |
| 2026-04-23 09:05 | -37.63976 | 144.66031 | 5339 ft | 276 kts | 315° |
| 2026-04-23 09:06 | -37.62434 | 144.64607 | 6169 ft | 277 kts | 337° |
| 2026-04-23 09:06 | -37.60605 | 144.63838 | 7025 ft | 278 kts | 346° |
| 2026-04-23 09:06 | -37.58733 | 144.63149 | 7834 ft | 282 kts | 345° |
| 2026-04-23 09:06 | -37.56821 | 144.62588 | 8626 ft | 284 kts | 357° |
| 2026-04-23 09:07 | -37.54855 | 144.62783 | 9405 ft | 286 kts | 16° |
| 2026-04-23 09:07 | -37.53050 | 144.63814 | 10201 ft | 287 kts | 36° |
| 2026-04-23 09:07 | -37.51593 | 144.65565 | 10719 ft | 299 kts | 52° |
| 2026-04-23 09:07 | -37.50278 | 144.67723 | 10933 ft | 322 kts | 53° |
| 2026-04-23 09:08 | -37.48887 | 144.70058 | 11096 ft | 345 kts | 53° |
| 2026-04-23 09:08 | -37.47446 | 144.72558 | 11220 ft | 367 kts | 58° |
| 2026-04-23 09:08 | -37.46144 | 144.75407 | 11559 ft | 380 kts | 61° |
| 2026-04-23 09:08 | -37.44829 | 144.78323 | 12133 ft | 385 kts | 60° |
| 2026-04-23 09:09 | -37.43488 | 144.81258 | 12739 ft | 389 kts | 60° |
| 2026-04-23 09:09 | -37.42117 | 144.84236 | 13358 ft | 393 kts | 60° |
| 2026-04-23 09:09 | -37.40753 | 144.87194 | 13950 ft | 398 kts | 60° |
| 2026-04-23 09:09 | -37.39358 | 144.90220 | 14508 ft | 402 kts | 60° |
| 2026-04-23 09:10 | -37.37947 | 144.93279 | 15031 ft | 406 kts | 60° |
| 2026-04-23 09:10 | -37.35092 | 144.99469 | 16084 ft | 414 kts | 60° |
| 2026-04-23 09:10 | -37.33638 | 145.02615 | 16606 ft | 418 kts | 60° |
| 2026-04-23 09:11 | -37.32168 | 145.05796 | 17110 ft | 422 kts | 60° |
| 2026-04-23 09:11 | -37.30693 | 145.08988 | 17611 ft | 425 kts | 60° |
| 2026-04-23 09:11 | -37.29199 | 145.12217 | 18104 ft | 429 kts | 60° |
| 2026-04-23 09:11 | -37.27694 | 145.15465 | 18583 ft | 432 kts | 60° |
| 2026-04-23 09:12 | -37.26171 | 145.18753 | 19008 ft | 435 kts | 60° |
| 2026-04-23 09:12 | -37.24641 | 145.22053 | 19422 ft | 438 kts | 60° |
| 2026-04-23 09:12 | -37.23118 | 145.25337 | 19824 ft | 440 kts | 61° |
| 2026-04-23 09:12 | -37.21563 | 145.28687 | 20219 ft | 443 kts | 61° |
| 2026-04-23 09:13 | -37.20006 | 145.32037 | 20611 ft | 445 kts | 61° |
| 2026-04-23 09:13 | -37.18435 | 145.35409 | 20986 ft | 448 kts | 61° |
| 2026-04-23 09:13 | -37.16877 | 145.38743 | 21354 ft | 450 kts | 60° |
| 2026-04-23 09:13 | -37.15099 | 145.42006 | 21707 ft | 453 kts | 56° |
| 2026-04-23 09:14 | -37.13241 | 145.45235 | 22065 ft | 456 kts | 56° |
| 2026-04-23 09:14 | -37.11403 | 145.48430 | 22401 ft | 458 kts | 56° |
| 2026-04-23 09:14 | -37.09540 | 145.51673 | 22735 ft | 460 kts | 56° |
| 2026-04-23 09:14 | -37.07671 | 145.54938 | 23067 ft | 462 kts | 56° |
| 2026-04-23 09:15 | -37.05794 | 145.58222 | 23390 ft | 465 kts | 56° |
| 2026-04-23 09:15 | -37.03905 | 145.61513 | 23705 ft | 467 kts | 56° |
| 2026-04-23 09:15 | -37.02001 | 145.64815 | 23999 ft | 469 kts | 56° |
| 2026-04-23 09:15 | -37.00082 | 145.68129 | 24248 ft | 471 kts | 56° |
| 2026-04-23 09:16 | -36.98157 | 145.71449 | 24485 ft | 473 kts | 56° |
| 2026-04-23 09:16 | -36.96224 | 145.74787 | 24716 ft | 475 kts | 56° |
| 2026-04-23 09:16 | -36.94285 | 145.78139 | 24944 ft | 476 kts | 56° |
| 2026-04-23 09:16 | -36.92342 | 145.81500 | 25175 ft | 478 kts | 56° |
| 2026-04-23 09:17 | -36.90389 | 145.84876 | 25389 ft | 480 kts | 56° |
| 2026-04-23 09:17 | -36.88430 | 145.88260 | 25594 ft | 482 kts | 56° |
| 2026-04-23 09:17 | -36.86463 | 145.91653 | 25800 ft | 483 kts | 56° |
| 2026-04-23 09:17 | -36.84483 | 145.95062 | 26050 ft | 483 kts | 56° |
| 2026-04-23 09:18 | -36.82511 | 145.98446 | 26326 ft | 483 kts | 56° |
| 2026-04-23 09:18 | -36.80534 | 146.01829 | 26615 ft | 482 kts | 56° |
| 2026-04-23 09:18 | -36.78557 | 146.05209 | 26903 ft | 482 kts | 57° |
| 2026-04-23 09:18 | -36.76581 | 146.08590 | 27186 ft | 482 kts | 57° |
| 2026-04-23 09:19 | -36.74603 | 146.11972 | 27479 ft | 482 kts | 57° |
| 2026-04-23 09:19 | -36.72630 | 146.15343 | 27772 ft | 481 kts | 57° |
| 2026-04-23 09:19 | -36.70655 | 146.18715 | 28068 ft | 481 kts | 57° |
| 2026-04-23 09:19 | -36.68707 | 146.22041 | 28356 ft | 481 kts | 57° |
| 2026-04-23 09:20 | -36.66738 | 146.25405 | 28667 ft | 480 kts | 57° |
| 2026-04-23 09:20 | -36.64767 | 146.28771 | 28972 ft | 480 kts | 57° |
| 2026-04-23 09:20 | -36.62796 | 146.32130 | 29297 ft | 480 kts | 57° |
| 2026-04-23 09:20 | -36.60822 | 146.35484 | 29613 ft | 480 kts | 57° |
| 2026-04-23 09:21 | -36.58849 | 146.38832 | 29922 ft | 480 kts | 58° |
| 2026-04-23 09:21 | -36.57544 | 146.41045 | 30127 ft | 479 kts | 58° |
| 2026-04-23 09:21 | -36.54898 | 146.45523 | 30538 ft | 479 kts | 58° |
| 2026-04-23 09:21 | -36.52946 | 146.48818 | 30802 ft | 479 kts | 58° |
| 2026-04-23 09:22 | -36.50973 | 146.52149 | 31073 ft | 478 kts | 58° |
| 2026-04-23 09:22 | -36.49002 | 146.55482 | 31358 ft | 478 kts | 58° |
| 2026-04-23 09:22 | -36.47697 | 146.57690 | 31539 ft | 477 kts | 58° |
| 2026-04-23 09:22 | -36.45726 | 146.61023 | 31815 ft | 477 kts | 58° |
| 2026-04-23 09:23 | -36.43764 | 146.64335 | 32097 ft | 476 kts | 58° |
| 2026-04-23 09:23 | -36.41159 | 146.68723 | 32481 ft | 475 kts | 58° |
| 2026-04-23 09:23 | -36.39834 | 146.70950 | 32675 ft | 475 kts | 58° |
| 2026-04-23 09:23 | -36.37238 | 146.75311 | 33038 ft | 474 kts | 58° |
| 2026-04-23 09:24 | -36.35916 | 146.77532 | 33227 ft | 474 kts | 58° |
| 2026-04-23 09:24 | -36.33957 | 146.80819 | 33500 ft | 473 kts | 58° |
| 2026-04-23 09:24 | -36.32001 | 146.84095 | 33776 ft | 473 kts | 58° |
| 2026-04-23 09:24 | -36.30043 | 146.87364 | 34096 ft | 472 kts | 59° |
| 2026-04-23 09:25 | -36.28088 | 146.90626 | 34387 ft | 471 kts | 59° |
| 2026-04-23 09:25 | -36.26163 | 146.93838 | 34628 ft | 470 kts | 59° |
| 2026-04-23 09:25 | -36.24191 | 146.97130 | 34866 ft | 470 kts | 59° |
| 2026-04-23 09:25 | -36.22244 | 147.00379 | 35090 ft | 470 kts | 59° |
| 2026-04-23 09:26 | -36.20326 | 147.03580 | 35301 ft | 470 kts | 59° |
| 2026-04-23 09:26 | -36.18376 | 147.06829 | 35502 ft | 470 kts | 59° |
| 2026-04-23 09:26 | -36.16427 | 147.10072 | 35713 ft | 469 kts | 59° |
| 2026-04-23 09:26 | -36.14476 | 147.13312 | 35951 ft | 469 kts | 59° |
| 2026-04-23 09:27 | -36.12528 | 147.16545 | 36169 ft | 468 kts | 59° |
| 2026-04-23 09:27 | -36.10578 | 147.19776 | 36349 ft | 469 kts | 59° |
| 2026-04-23 09:27 | -36.08629 | 147.23000 | 36536 ft | 469 kts | 59° |
| 2026-04-23 09:27 | -36.06679 | 147.26224 | 36712 ft | 469 kts | 59° |
| 2026-04-23 09:28 | -36.04728 | 147.29455 | 36876 ft | 469 kts | 59° |
| 2026-04-23 09:28 | -36.02778 | 147.32680 | 37043 ft | 469 kts | 59° |
| 2026-04-23 09:28 | -36.00823 | 147.35908 | 37217 ft | 469 kts | 59° |
| 2026-04-23 09:28 | -35.98868 | 147.39132 | 37398 ft | 469 kts | 59° |
| 2026-04-23 09:29 | -35.96904 | 147.42360 | 37414 ft | 472 kts | 58° |
| 2026-04-23 09:29 | -35.92940 | 147.48880 | 37410 ft | 477 kts | 58° |
| 2026-04-23 09:30 | -35.88935 | 147.55460 | 37414 ft | 482 kts | 58° |
| 2026-04-23 09:30 | -35.84895 | 147.62088 | 37423 ft | 485 kts | 58° |
| 2026-04-23 09:31 | -35.80824 | 147.68739 | 37439 ft | 487 kts | 58° |
| 2026-04-23 09:31 | -35.76743 | 147.75389 | 37446 ft | 487 kts | 58° |
| 2026-04-23 09:32 | -35.72686 | 147.81999 | 37447 ft | 487 kts | 58° |
| 2026-04-23 09:32 | -35.68593 | 147.88653 | 37443 ft | 488 kts | 58° |
| 2026-04-23 09:33 | -35.64501 | 147.95301 | 37463 ft | 488 kts | 58° |
| 2026-04-23 09:33 | -35.60395 | 148.01937 | 37457 ft | 488 kts | 58° |
| 2026-04-23 09:34 | -35.56291 | 148.08567 | 37456 ft | 487 kts | 58° |
| 2026-04-23 09:34 | -35.52182 | 148.15201 | 37469 ft | 488 kts | 58° |
| 2026-04-23 09:35 | -35.48074 | 148.21818 | 37489 ft | 488 kts | 58° |
| 2026-04-23 09:35 | -35.43956 | 148.28430 | 37481 ft | 487 kts | 57° |
| 2026-04-23 09:36 | -35.39840 | 148.35032 | 37483 ft | 487 kts | 57° |
| 2026-04-23 09:36 | -35.35725 | 148.41628 | 37485 ft | 487 kts | 57° |
| 2026-04-23 09:37 | -35.31601 | 148.48221 | 37512 ft | 487 kts | 57° |
| 2026-04-23 09:37 | -35.27481 | 148.54797 | 37496 ft | 487 kts | 57° |
| 2026-04-23 09:38 | -35.23378 | 148.61331 | 37492 ft | 487 kts | 57° |
| 2026-04-23 09:38 | -35.19246 | 148.67888 | 37482 ft | 487 kts | 57° |
| 2026-04-23 09:39 | -35.15112 | 148.74446 | 37481 ft | 487 kts | 57° |
| 2026-04-23 09:39 | -35.10973 | 148.80995 | 37489 ft | 487 kts | 57° |
| 2026-04-23 09:40 | -35.06825 | 148.87536 | 37481 ft | 487 kts | 57° |
| 2026-04-23 09:40 | -35.02681 | 148.94071 | 37490 ft | 487 kts | 57° |
| 2026-04-23 09:41 | -34.98533 | 149.00609 | 37486 ft | 487 kts | 57° |
| 2026-04-23 09:41 | -34.94383 | 149.07141 | 37493 ft | 487 kts | 56° |
| 2026-04-23 09:42 | -34.90233 | 149.13664 | 37492 ft | 487 kts | 56° |
| 2026-04-23 09:42 | -34.86076 | 149.20176 | 37488 ft | 487 kts | 56° |
| 2026-04-23 09:43 | -34.81910 | 149.26673 | 37488 ft | 487 kts | 56° |
| 2026-04-23 09:43 | -34.77746 | 149.33167 | 37493 ft | 487 kts | 56° |
| 2026-04-23 09:44 | -34.73708 | 149.39750 | 37490 ft | 483 kts | 63° |
| 2026-04-23 09:44 | -34.70555 | 149.46912 | 37487 ft | 480 kts | 66° |
| 2026-04-23 09:45 | -34.67431 | 149.54087 | 37494 ft | 480 kts | 66° |
| 2026-04-23 09:45 | -34.65870 | 149.57654 | 37195 ft | 476 kts | 66° |
| 2026-04-23 09:45 | -34.64314 | 149.61207 | 36314 ft | 477 kts | 65° |
| 2026-04-23 09:45 | -34.62756 | 149.64764 | 35432 ft | 477 kts | 65° |
| 2026-04-23 09:46 | -34.61197 | 149.68319 | 34564 ft | 478 kts | 65° |
| 2026-04-23 09:46 | -34.59633 | 149.71882 | 33542 ft | 478 kts | 65° |
| 2026-04-23 09:46 | -34.58069 | 149.75447 | 32483 ft | 479 kts | 65° |
| 2026-04-23 09:46 | -34.56500 | 149.79021 | 31412 ft | 481 kts | 64° |
| 2026-04-23 09:47 | -34.54922 | 149.82606 | 30285 ft | 482 kts | 64° |
| 2026-04-23 09:47 | -34.53341 | 149.86196 | 28953 ft | 484 kts | 64° |
| 2026-04-23 09:47 | -34.51752 | 149.89799 | 27604 ft | 485 kts | 63° |
| 2026-04-23 09:47 | -34.50162 | 149.93402 | 26296 ft | 485 kts | 63° |
| 2026-04-23 09:48 | -34.48570 | 149.97004 | 25050 ft | 484 kts | 63° |
| 2026-04-23 09:48 | -34.46981 | 150.00596 | 23810 ft | 483 kts | 63° |
| 2026-04-23 09:48 | -34.45395 | 150.04175 | 22839 ft | 477 kts | 63° |
| 2026-04-23 09:48 | -34.43834 | 150.07694 | 21857 ft | 472 kts | 63° |
| 2026-04-23 09:49 | -34.42294 | 150.11163 | 21034 ft | 465 kts | 63° |
| 2026-04-23 09:49 | -34.40768 | 150.14597 | 20183 ft | 461 kts | 63° |
| 2026-04-23 09:49 | -34.39255 | 150.17994 | 19373 ft | 456 kts | 63° |
| 2026-04-23 09:49 | -34.37757 | 150.21351 | 18608 ft | 450 kts | 63° |
| 2026-04-23 09:50 | -34.36275 | 150.24673 | 17868 ft | 444 kts | 63° |
| 2026-04-23 09:50 | -34.34814 | 150.27946 | 17041 ft | 440 kts | 63° |
| 2026-04-23 09:50 | -34.33372 | 150.31170 | 16332 ft | 433 kts | 64° |
| 2026-04-23 09:50 | -34.31947 | 150.34358 | 15719 ft | 426 kts | 64° |
| 2026-04-23 09:51 | -34.30539 | 150.37503 | 15001 ft | 422 kts | 64° |
| 2026-04-23 09:51 | -34.29154 | 150.40591 | 14444 ft | 414 kts | 64° |
| 2026-04-23 09:51 | -34.27806 | 150.43603 | 13689 ft | 411 kts | 64° |
| 2026-04-23 09:51 | -34.26454 | 150.46633 | 13003 ft | 406 kts | 64° |
| 2026-04-23 09:52 | -34.25102 | 150.49660 | 12300 ft | 402 kts | 64° |
| 2026-04-23 09:52 | -34.23803 | 150.52566 | 11822 ft | 392 kts | 64° |
| 2026-04-23 09:52 | -34.22537 | 150.55397 | 11695 ft | 373 kts | 64° |
| 2026-04-23 09:52 | -34.21331 | 150.58092 | 11570 ft | 356 kts | 64° |
| 2026-04-23 09:53 | -34.20176 | 150.60664 | 11447 ft | 340 kts | 64° |
| 2026-04-23 09:53 | -34.19070 | 150.63121 | 11330 ft | 326 kts | 64° |
| 2026-04-23 09:53 | -34.18009 | 150.65481 | 11202 ft | 313 kts | 64° |
| 2026-04-23 09:53 | -34.16989 | 150.67752 | 11085 ft | 302 kts | 64° |
| 2026-04-23 09:54 | -34.16006 | 150.69938 | 10924 ft | 292 kts | 64° |
| 2026-04-23 09:54 | -34.15044 | 150.72081 | 10616 ft | 289 kts | 64° |
| 2026-04-23 09:54 | -34.14088 | 150.74213 | 10254 ft | 288 kts | 64° |
| 2026-04-23 09:54 | -34.13141 | 150.76316 | 10077 ft | 284 kts | 64° |
| 2026-04-23 09:55 | -34.12176 | 150.78401 | 9920 ft | 285 kts | 59° |
| 2026-04-23 09:55 | -34.10808 | 150.80134 | 9793 ft | 289 kts | 40° |
| 2026-04-23 09:55 | -34.09209 | 150.81596 | 9662 ft | 289 kts | 39° |
| 2026-04-23 09:55 | -34.07601 | 150.83043 | 9530 ft | 288 kts | 39° |
| 2026-04-23 09:56 | -34.05991 | 150.84481 | 9401 ft | 287 kts | 39° |
| 2026-04-23 09:56 | -34.04387 | 150.85913 | 9268 ft | 287 kts | 39° |
| 2026-04-23 09:56 | -34.02784 | 150.87340 | 9145 ft | 286 kts | 39° |
| 2026-04-23 09:56 | -34.01188 | 150.88766 | 9018 ft | 285 kts | 39° |
| 2026-04-23 09:57 | -33.99597 | 150.90190 | 8889 ft | 285 kts | 39° |
| 2026-04-23 09:57 | -33.98008 | 150.91611 | 8728 ft | 285 kts | 39° |
| 2026-04-23 09:57 | -33.96408 | 150.93043 | 8261 ft | 286 kts | 39° |
| 2026-04-23 09:57 | -33.94822 | 150.94461 | 7903 ft | 283 kts | 39° |
| 2026-04-23 09:58 | -33.93251 | 150.95864 | 7424 ft | 279 kts | 39° |
| 2026-04-23 09:58 | -33.91702 | 150.97249 | 6770 ft | 276 kts | 38° |
| 2026-04-23 09:58 | -33.90164 | 150.98620 | 6087 ft | 273 kts | 38° |
| 2026-04-23 09:58 | -33.88648 | 150.99971 | 5425 ft | 269 kts | 38° |
| 2026-04-23 09:59 | -33.87152 | 151.01304 | 4800 ft | 265 kts | 38° |
| 2026-04-23 09:59 | -33.85683 | 151.02611 | 4326 ft | 257 kts | 38° |
| 2026-04-23 09:59 | -33.84334 | 151.03808 | 4263 ft | 233 kts | 39° |
| 2026-04-23 09:59 | -33.83074 | 151.04930 | 4216 ft | 219 kts | 39° |
| 2026-04-23 10:00 | -33.81885 | 151.05992 | 4139 ft | 207 kts | 39° |
| 2026-04-23 10:00 | -33.80770 | 151.06985 | 4066 ft | 193 kts | 39° |
| 2026-04-23 10:00 | -33.79710 | 151.07927 | 3958 ft | 188 kts | 40° |
| 2026-04-23 10:00 | -33.78660 | 151.08865 | 3870 ft | 188 kts | 41° |
| 2026-04-23 10:01 | -33.77874 | 151.10061 | 3788 ft | 182 kts | 72° |
| 2026-04-23 10:01 | -33.77749 | 151.11533 | 3705 ft | 175 kts | 102° |
| 2026-04-23 10:01 | -33.78227 | 151.12782 | 3516 ft | 161 kts | 129° |
| 2026-04-23 10:01 | -33.79117 | 151.13555 | 3173 ft | 158 kts | 157° |
| 2026-04-23 10:02 | -33.80192 | 151.13867 | 2777 ft | 160 kts | 166° |
| 2026-04-23 10:02 | -33.81271 | 151.14142 | 2447 ft | 157 kts | 165° |
| 2026-04-23 10:02 | -33.82334 | 151.14415 | 2201 ft | 156 kts | 165° |
| 2026-04-23 10:02 | -33.83395 | 151.14689 | 1973 ft | 155 kts | 166° |
| 2026-04-23 10:03 | -33.84454 | 151.14963 | 1755 ft | 155 kts | 166° |
| 2026-04-23 10:03 | -33.85511 | 151.15236 | 1540 ft | 157 kts | 165° |
| 2026-04-23 10:03 | -33.86550 | 151.15504 | 1343 ft | 149 kts | 165° |
| 2026-04-23 10:03 | -33.87542 | 151.15761 | 1147 ft | 145 kts | 164° |
| 2026-04-23 10:04 | -33.88519 | 151.16014 | 956 ft | 142 kts | 166° |
| 2026-04-23 10:04 | -33.89491 | 151.16266 | 767 ft | 143 kts | 164° |
| 2026-04-23 10:04 | -33.90436 | 151.16510 | 583 ft | 135 kts | 166° |
| 2026-04-23 10:04 | -33.91351 | 151.16748 | 400 ft | 134 kts | 165° |
| 2026-04-23 10:05 | -33.92257 | 151.16982 | 222 ft | 133 kts | 166° |
| 2026-04-23 10:05 | -33.93163 | 151.17217 | 45 ft | 132 kts | 165° |
| 2026-04-23 10:05 | -33.93811 | 151.17385 | 26 ft | 29 kts | 168° |
| 2026-04-23 10:05 | -33.93905 | 151.17456 | 27 ft | 16 kts | 105° |
| 2026-04-23 10:06 | -33.93897 | 151.17535 | 28 ft | 7 kts | 77° |
| 2026-04-23 10:06 | -33.93895 | 151.17548 | 28 ft | 0 kts | 77° |
| 2026-04-23 10:07 | -33.93881 | 151.17618 | 29 ft | 18 kts | 76° |
| 2026-04-23 10:07 | -33.93825 | 151.17756 | 30 ft | 19 kts | 31° |
| 2026-04-23 10:07 | -33.93701 | 151.17800 | 30 ft | 13 kts | 12° |
| 2026-04-23 10:08 | -33.93619 | 151.17821 | 30 ft | 11 kts | 12° |
| 2026-04-23 10:08 | -33.93575 | 151.17855 | 30 ft | 6 kts | 72° |
| 2026-04-23 10:08 | -33.93576 | 151.17899 | 30 ft | 5 kts | 94° |
| 2026-04-23 10:09 | -33.93577 | 151.17903 | 30 ft | 0 kts | 101° |